sensor_id;sensor_type;location;lat;lon;timestamp;P1;durP1;ratioP1;P2;durP2;ratioP2
69502;SDS011;56704;54.242;12.442;2023-08-30T00:00:54;5.18;;;2.10;;
69502;SDS011;56704;54.242;12.442;2023-08-30T00:03:20;6.87;;;2.17;;
69502;SDS011;56704;54.242;12.442;2023-08-30T00:05:47;4.65;;;1.88;;
69502;SDS011;56704;54.242;12.442;2023-08-30T00:08:13;5.38;;;2.10;;
69502;SDS011;56704;54.242;12.442;2023-08-30T00:10:43;4.60;;;2.42;;
69502;SDS011;56704;54.242;12.442;2023-08-30T00:13:10;5.13;;;2.10;;
69502;SDS011;56704;54.242;12.442;2023-08-30T00:15:38;5.00;;;1.70;;
69502;SDS011;56704;54.242;12.442;2023-08-30T00:18:05;3.97;;;1.90;;
69502;SDS011;56704;54.242;12.442;2023-08-30T00:20:32;4.60;;;2.03;;
69502;SDS011;56704;54.242;12.442;2023-08-30T00:22:59;5.00;;;1.80;;
69502;SDS011;56704;54.242;12.442;2023-08-30T00:25:25;6.85;;;2.30;;
69502;SDS011;56704;54.242;12.442;2023-08-30T00:27:52;4.13;;;2.00;;
69502;SDS011;56704;54.242;12.442;2023-08-30T00:30:19;4.10;;;2.10;;
69502;SDS011;56704;54.242;12.442;2023-08-30T00:32:47;4.38;;;1.95;;
69502;SDS011;56704;54.242;12.442;2023-08-30T00:35:14;5.35;;;2.42;;
69502;SDS011;56704;54.242;12.442;2023-08-30T00:37:41;4.82;;;2.05;;
69502;SDS011;56704;54.242;12.442;2023-08-30T00:40:08;4.83;;;2.10;;
69502;SDS011;56704;54.242;12.442;2023-08-30T00:42:34;5.75;;;2.47;;
69502;SDS011;56704;54.242;12.442;2023-08-30T00:45:01;6.13;;;2.15;;
69502;SDS011;56704;54.242;12.442;2023-08-30T00:47:28;7.13;;;2.42;;
69502;SDS011;56704;54.242;12.442;2023-08-30T00:49:56;3.83;;;1.70;;
69502;SDS011;56704;54.242;12.442;2023-08-30T00:52:23;6.23;;;2.57;;
69502;SDS011;56704;54.242;12.442;2023-08-30T00:54:49;5.63;;;2.00;;
69502;SDS011;56704;54.242;12.442;2023-08-30T00:57:16;4.53;;;2.13;;
69502;SDS011;56704;54.242;12.442;2023-08-30T00:59:43;5.75;;;2.50;;
69502;SDS011;56704;54.242;12.442;2023-08-30T01:02:09;6.50;;;2.70;;
69502;SDS011;56704;54.242;12.442;2023-08-30T01:04:36;7.37;;;2.70;;
69502;SDS011;56704;54.242;12.442;2023-08-30T01:07:04;6.38;;;2.47;;
69502;SDS011;56704;54.242;12.442;2023-08-30T01:09:30;5.30;;;2.13;;
69502;SDS011;56704;54.242;12.442;2023-08-30T01:12:00;4.68;;;2.28;;
69502;SDS011;56704;54.242;12.442;2023-08-30T01:14:34;5.00;;;2.45;;
69502;SDS011;56704;54.242;12.442;2023-08-30T01:17:05;6.47;;;2.33;;
69502;SDS011;56704;54.242;12.442;2023-08-30T01:19:37;5.05;;;2.47;;
69502;SDS011;56704;54.242;12.442;2023-08-30T01:25:35;5.75;;;2.30;;
69502;SDS011;56704;54.242;12.442;2023-08-30T01:28:13;4.40;;;2.00;;
69502;SDS011;56704;54.242;12.442;2023-08-30T01:30:42;5.87;;;2.30;;
69502;SDS011;56704;54.242;12.442;2023-08-30T01:33:11;4.63;;;2.30;;
69502;SDS011;56704;54.242;12.442;2023-08-30T01:35:40;4.63;;;2.08;;
69502;SDS011;56704;54.242;12.442;2023-08-30T01:38:07;5.10;;;1.88;;
69502;SDS011;56704;54.242;12.442;2023-08-30T01:40:35;5.20;;;2.20;;
69502;SDS011;56704;54.242;12.442;2023-08-30T01:43:03;4.30;;;1.83;;
69502;SDS011;56704;54.242;12.442;2023-08-30T01:45:33;5.88;;;2.13;;
69502;SDS011;56704;54.242;12.442;2023-08-30T01:48:02;5.63;;;2.10;;
69502;SDS011;56704;54.242;12.442;2023-08-30T01:50:30;5.63;;;1.98;;
69502;SDS011;56704;54.242;12.442;2023-08-30T01:52:58;5.47;;;1.90;;
69502;SDS011;56704;54.242;12.442;2023-08-30T01:55:26;6.60;;;2.20;;
69502;SDS011;56704;54.242;12.442;2023-08-30T01:57:55;4.32;;;2.10;;
69502;SDS011;56704;54.242;12.442;2023-08-30T02:00:22;5.43;;;1.90;;
69502;SDS011;56704;54.242;12.442;2023-08-30T02:02:50;8.35;;;2.15;;
69502;SDS011;56704;54.242;12.442;2023-08-30T02:05:17;4.70;;;2.20;;
69502;SDS011;56704;54.242;12.442;2023-08-30T02:07:43;5.50;;;1.90;;
69502;SDS011;56704;54.242;12.442;2023-08-30T02:10:21;4.32;;;1.77;;
69502;SDS011;56704;54.242;12.442;2023-08-30T02:12:52;5.40;;;2.10;;
69502;SDS011;56704;54.242;12.442;2023-08-30T02:15:20;4.82;;;2.28;;
69502;SDS011;56704;54.242;12.442;2023-08-30T02:17:52;6.15;;;2.47;;
69502;SDS011;56704;54.242;12.442;2023-08-30T02:20:19;5.40;;;2.30;;
69502;SDS011;56704;54.242;12.442;2023-08-30T02:22:46;6.57;;;2.85;;
69502;SDS011;56704;54.242;12.442;2023-08-30T02:25:12;5.72;;;2.40;;
69502;SDS011;56704;54.242;12.442;2023-08-30T02:27:39;5.63;;;2.00;;
69502;SDS011;56704;54.242;12.442;2023-08-30T02:30:06;5.10;;;2.30;;
69502;SDS011;56704;54.242;12.442;2023-08-30T02:32:33;8.83;;;2.43;;
69502;SDS011;56704;54.242;12.442;2023-08-30T02:35:01;5.28;;;2.17;;
69502;SDS011;56704;54.242;12.442;2023-08-30T02:37:28;5.75;;;2.30;;
69502;SDS011;56704;54.242;12.442;2023-08-30T02:39:55;6.32;;;2.47;;
69502;SDS011;56704;54.242;12.442;2023-08-30T02:42:22;5.22;;;2.25;;
69502;SDS011;56704;54.242;12.442;2023-08-30T02:44:48;5.40;;;2.23;;
69502;SDS011;56704;54.242;12.442;2023-08-30T02:47:15;5.70;;;2.30;;
69502;SDS011;56704;54.242;12.442;2023-08-30T02:49:41;6.78;;;2.50;;
69502;SDS011;56704;54.242;12.442;2023-08-30T02:52:09;6.22;;;2.30;;
69502;SDS011;56704;54.242;12.442;2023-08-30T02:54:36;5.53;;;2.50;;
69502;SDS011;56704;54.242;12.442;2023-08-30T02:57:02;5.87;;;2.43;;
69502;SDS011;56704;54.242;12.442;2023-08-30T02:59:29;4.82;;;2.50;;
69502;SDS011;56704;54.242;12.442;2023-08-30T03:01:56;6.10;;;2.67;;
69502;SDS011;56704;54.242;12.442;2023-08-30T03:04:22;6.32;;;2.83;;
69502;SDS011;56704;54.242;12.442;2023-08-30T03:06:49;7.25;;;3.00;;
69502;SDS011;56704;54.242;12.442;2023-08-30T03:09:17;6.77;;;3.00;;
69502;SDS011;56704;54.242;12.442;2023-08-30T03:11:43;7.55;;;3.13;;
69502;SDS011;56704;54.242;12.442;2023-08-30T03:14:10;8.43;;;3.40;;
69502;SDS011;56704;54.242;12.442;2023-08-30T03:16:36;7.82;;;3.45;;
69502;SDS011;56704;54.242;12.442;2023-08-30T03:19:03;6.68;;;3.42;;
69502;SDS011;56704;54.242;12.442;2023-08-30T03:21:30;8.47;;;3.70;;
69502;SDS011;56704;54.242;12.442;2023-08-30T03:23:56;8.50;;;3.67;;
69502;SDS011;56704;54.242;12.442;2023-08-30T03:26:24;8.80;;;4.05;;
69502;SDS011;56704;54.242;12.442;2023-08-30T03:28:51;7.80;;;3.70;;
69502;SDS011;56704;54.242;12.442;2023-08-30T03:31:18;9.13;;;4.15;;
69502;SDS011;56704;54.242;12.442;2023-08-30T03:33:46;9.47;;;4.47;;
69502;SDS011;56704;54.242;12.442;2023-08-30T03:36:13;8.43;;;4.30;;
69502;SDS011;56704;54.242;12.442;2023-08-30T03:38:41;11.07;;;4.63;;
69502;SDS011;56704;54.242;12.442;2023-08-30T03:41:08;10.90;;;4.57;;
69502;SDS011;56704;54.242;12.442;2023-08-30T03:43:37;9.88;;;5.00;;
69502;SDS011;56704;54.242;12.442;2023-08-30T03:46:04;12.40;;;4.93;;
69502;SDS011;56704;54.242;12.442;2023-08-30T03:48:31;13.75;;;5.60;;
69502;SDS011;56704;54.242;12.442;2023-08-30T03:50:58;13.25;;;5.55;;
69502;SDS011;56704;54.242;12.442;2023-08-30T03:53:25;13.52;;;5.50;;
69502;SDS011;56704;54.242;12.442;2023-08-30T03:55:51;12.38;;;6.15;;
69502;SDS011;56704;54.242;12.442;2023-08-30T03:58:18;13.77;;;5.80;;
69502;SDS011;56704;54.242;12.442;2023-08-30T04:00:47;12.95;;;6.13;;
69502;SDS011;56704;54.242;12.442;2023-08-30T04:03:14;12.75;;;6.30;;
69502;SDS011;56704;54.242;12.442;2023-08-30T04:05:41;14.15;;;6.18;;
69502;SDS011;56704;54.242;12.442;2023-08-30T04:08:08;13.07;;;6.13;;
69502;SDS011;56704;54.242;12.442;2023-08-30T04:10:35;13.27;;;5.93;;
69502;SDS011;56704;54.242;12.442;2023-08-30T04:13:02;13.73;;;5.93;;
69502;SDS011;56704;54.242;12.442;2023-08-30T04:15:32;13.93;;;6.03;;
69502;SDS011;56704;54.242;12.442;2023-08-30T04:18:00;14.43;;;5.70;;
69502;SDS011;56704;54.242;12.442;2023-08-30T04:20:27;14.18;;;5.90;;
69502;SDS011;56704;54.242;12.442;2023-08-30T04:22:54;14.43;;;6.33;;
69502;SDS011;56704;54.242;12.442;2023-08-30T04:25:21;11.93;;;5.53;;
69502;SDS011;56704;54.242;12.442;2023-08-30T04:27:48;12.68;;;5.70;;
69502;SDS011;56704;54.242;12.442;2023-08-30T04:30:15;11.63;;;5.40;;
69502;SDS011;56704;54.242;12.442;2023-08-30T04:32:42;12.65;;;5.32;;
69502;SDS011;56704;54.242;12.442;2023-08-30T04:35:10;13.20;;;5.53;;
69502;SDS011;56704;54.242;12.442;2023-08-30T04:37:37;16.23;;;5.78;;
69502;SDS011;56704;54.242;12.442;2023-08-30T04:40:04;13.43;;;5.38;;
69502;SDS011;56704;54.242;12.442;2023-08-30T04:42:33;11.00;;;4.82;;
69502;SDS011;56704;54.242;12.442;2023-08-30T04:44:59;13.13;;;5.00;;
69502;SDS011;56704;54.242;12.442;2023-08-30T04:47:27;11.37;;;5.10;;
69502;SDS011;56704;54.242;12.442;2023-08-30T04:49:54;10.85;;;5.18;;
69502;SDS011;56704;54.242;12.442;2023-08-30T04:52:22;12.48;;;5.63;;
69502;SDS011;56704;54.242;12.442;2023-08-30T04:54:48;11.73;;;5.50;;
69502;SDS011;56704;54.242;12.442;2023-08-30T04:57:15;13.32;;;5.20;;
69502;SDS011;56704;54.242;12.442;2023-08-30T04:59:44;11.33;;;4.57;;
69502;SDS011;56704;54.242;12.442;2023-08-30T05:02:11;10.68;;;4.90;;
69502;SDS011;56704;54.242;12.442;2023-08-30T05:04:38;10.30;;;4.72;;
69502;SDS011;56704;54.242;12.442;2023-08-30T05:07:04;10.35;;;4.80;;
69502;SDS011;56704;54.242;12.442;2023-08-30T05:09:32;11.75;;;5.10;;
69502;SDS011;56704;54.242;12.442;2023-08-30T05:12:00;10.90;;;4.93;;
69502;SDS011;56704;54.242;12.442;2023-08-30T05:14:27;10.52;;;4.82;;
69502;SDS011;56704;54.242;12.442;2023-08-30T05:16:53;10.70;;;4.97;;
69502;SDS011;56704;54.242;12.442;2023-08-30T05:19:20;9.48;;;4.55;;
69502;SDS011;56704;54.242;12.442;2023-08-30T05:21:47;12.23;;;4.38;;
69502;SDS011;56704;54.242;12.442;2023-08-30T05:24:16;9.97;;;4.40;;
69502;SDS011;56704;54.242;12.442;2023-08-30T05:26:44;11.23;;;4.85;;
69502;SDS011;56704;54.242;12.442;2023-08-30T05:29:12;9.65;;;4.53;;
69502;SDS011;56704;54.242;12.442;2023-08-30T05:31:38;12.25;;;4.63;;
69502;SDS011;56704;54.242;12.442;2023-08-30T05:34:05;12.38;;;4.68;;
69502;SDS011;56704;54.242;12.442;2023-08-30T05:36:32;9.60;;;4.37;;
69502;SDS011;56704;54.242;12.442;2023-08-30T05:38:58;10.88;;;5.00;;
69502;SDS011;56704;54.242;12.442;2023-08-30T05:41:25;12.88;;;5.28;;
69502;SDS011;56704;54.242;12.442;2023-08-30T05:43:53;9.05;;;4.20;;
69502;SDS011;56704;54.242;12.442;2023-08-30T05:46:19;9.10;;;4.25;;
69502;SDS011;56704;54.242;12.442;2023-08-30T05:48:46;10.43;;;4.50;;
69502;SDS011;56704;54.242;12.442;2023-08-30T05:51:13;12.15;;;4.78;;
69502;SDS011;56704;54.242;12.442;2023-08-30T05:53:39;12.88;;;4.18;;
69502;SDS011;56704;54.242;12.442;2023-08-30T05:56:06;8.07;;;3.83;;
69502;SDS011;56704;54.242;12.442;2023-08-30T05:58:32;9.38;;;3.95;;
69502;SDS011;56704;54.242;12.442;2023-08-30T06:01:01;11.50;;;4.50;;
69502;SDS011;56704;54.242;12.442;2023-08-30T06:03:28;8.38;;;3.70;;
69502;SDS011;56704;54.242;12.442;2023-08-30T06:05:55;7.78;;;4.10;;
69502;SDS011;56704;54.242;12.442;2023-08-30T06:08:21;9.15;;;4.18;;
69502;SDS011;56704;54.242;12.442;2023-08-30T06:10:48;8.98;;;3.67;;
69502;SDS011;56704;54.242;12.442;2023-08-30T06:13:14;9.70;;;3.97;;
69502;SDS011;56704;54.242;12.442;2023-08-30T06:15:41;8.45;;;3.40;;
69502;SDS011;56704;54.242;12.442;2023-08-30T06:18:11;6.35;;;3.20;;
69502;SDS011;56704;54.242;12.442;2023-08-30T06:20:39;7.10;;;3.70;;
69502;SDS011;56704;54.242;12.442;2023-08-30T06:23:06;7.68;;;3.42;;
69502;SDS011;56704;54.242;12.442;2023-08-30T06:25:33;10.13;;;3.53;;
69502;SDS011;56704;54.242;12.442;2023-08-30T06:27:59;9.68;;;3.50;;
69502;SDS011;56704;54.242;12.442;2023-08-30T06:30:26;6.07;;;2.85;;
69502;SDS011;56704;54.242;12.442;2023-08-30T06:32:54;6.68;;;2.92;;
69502;SDS011;56704;54.242;12.442;2023-08-30T06:35:22;6.57;;;3.10;;
69502;SDS011;56704;54.242;12.442;2023-08-30T06:37:49;7.63;;;3.23;;
69502;SDS011;56704;54.242;12.442;2023-08-30T06:40:17;6.55;;;3.17;;
69502;SDS011;56704;54.242;12.442;2023-08-30T06:42:43;7.97;;;2.97;;
69502;SDS011;56704;54.242;12.442;2023-08-30T06:45:10;6.13;;;2.97;;
69502;SDS011;56704;54.242;12.442;2023-08-30T06:47:37;6.95;;;2.95;;
69502;SDS011;56704;54.242;12.442;2023-08-30T06:50:04;7.43;;;3.50;;
69502;SDS011;56704;54.242;12.442;2023-08-30T06:52:35;12.38;;;3.22;;
69502;SDS011;56704;54.242;12.442;2023-08-30T06:55:02;7.43;;;2.90;;
69502;SDS011;56704;54.242;12.442;2023-08-30T06:57:29;6.78;;;3.00;;
69502;SDS011;56704;54.242;12.442;2023-08-30T06:59:56;7.53;;;3.08;;
69502;SDS011;56704;54.242;12.442;2023-08-30T07:02:24;6.83;;;2.57;;
69502;SDS011;56704;54.242;12.442;2023-08-30T07:04:52;5.28;;;2.88;;
69502;SDS011;56704;54.242;12.442;2023-08-30T07:07:19;7.70;;;2.90;;
69502;SDS011;56704;54.242;12.442;2023-08-30T07:09:47;7.05;;;3.03;;
69502;SDS011;56704;54.242;12.442;2023-08-30T07:12:13;5.97;;;2.78;;
69502;SDS011;56704;54.242;12.442;2023-08-30T07:14:40;6.83;;;2.30;;
69502;SDS011;56704;54.242;12.442;2023-08-30T07:17:06;5.53;;;2.45;;
69502;SDS011;56704;54.242;12.442;2023-08-30T07:19:33;7.75;;;3.00;;
69502;SDS011;56704;54.242;12.442;2023-08-30T07:22:00;5.95;;;2.60;;
69502;SDS011;56704;54.242;12.442;2023-08-30T07:24:26;6.28;;;2.60;;
69502;SDS011;56704;54.242;12.442;2023-08-30T07:26:54;5.73;;;2.30;;
69502;SDS011;56704;54.242;12.442;2023-08-30T07:29:20;5.22;;;2.38;;
69502;SDS011;56704;54.242;12.442;2023-08-30T07:31:47;4.25;;;2.25;;
69502;SDS011;56704;54.242;12.442;2023-08-30T07:34:16;5.00;;;2.47;;
69502;SDS011;56704;54.242;12.442;2023-08-30T07:36:43;4.82;;;2.35;;
69502;SDS011;56704;54.242;12.442;2023-08-30T07:39:09;6.37;;;2.90;;
69502;SDS011;56704;54.242;12.442;2023-08-30T07:41:36;5.28;;;2.22;;
69502;SDS011;56704;54.242;12.442;2023-08-30T07:44:04;5.68;;;2.70;;
69502;SDS011;56704;54.242;12.442;2023-08-30T07:46:31;6.50;;;2.85;;
69502;SDS011;56704;54.242;12.442;2023-08-30T07:48:57;5.15;;;2.55;;
69502;SDS011;56704;54.242;12.442;2023-08-30T07:51:24;4.37;;;2.03;;
69502;SDS011;56704;54.242;12.442;2023-08-30T07:53:50;5.65;;;2.15;;
69502;SDS011;56704;54.242;12.442;2023-08-30T07:56:17;5.70;;;1.80;;
69502;SDS011;56704;54.242;12.442;2023-08-30T07:58:44;5.15;;;1.70;;
69502;SDS011;56704;54.242;12.442;2023-08-30T08:01:11;5.30;;;1.90;;
69502;SDS011;56704;54.242;12.442;2023-08-30T08:03:38;4.27;;;1.50;;
69502;SDS011;56704;54.242;12.442;2023-08-30T08:06:06;4.18;;;1.73;;
69502;SDS011;56704;54.242;12.442;2023-08-30T08:08:32;7.25;;;1.77;;
69502;SDS011;56704;54.242;12.442;2023-08-30T08:10:59;8.75;;;1.65;;
69502;SDS011;56704;54.242;12.442;2023-08-30T08:13:26;9.25;;;2.17;;
69502;SDS011;56704;54.242;12.442;2023-08-30T08:15:55;5.53;;;1.30;;
69502;SDS011;56704;54.242;12.442;2023-08-30T08:18:23;2.83;;;0.90;;
69502;SDS011;56704;54.242;12.442;2023-08-30T08:20:50;3.35;;;1.00;;
69502;SDS011;56704;54.242;12.442;2023-08-30T08:23:16;4.63;;;1.30;;
69502;SDS011;56704;54.242;12.442;2023-08-30T08:25:43;2.95;;;1.08;;
69502;SDS011;56704;54.242;12.442;2023-08-30T08:28:09;6.67;;;1.47;;
69502;SDS011;56704;54.242;12.442;2023-08-30T08:30:36;3.45;;;1.27;;
69502;SDS011;56704;54.242;12.442;2023-08-30T08:33:03;3.45;;;1.20;;
69502;SDS011;56704;54.242;12.442;2023-08-30T08:35:31;2.75;;;1.08;;
69502;SDS011;56704;54.242;12.442;2023-08-30T08:37:57;5.63;;;1.20;;
69502;SDS011;56704;54.242;12.442;2023-08-30T08:40:24;3.77;;;1.03;;
69502;SDS011;56704;54.242;12.442;2023-08-30T08:42:51;3.25;;;1.02;;
69502;SDS011;56704;54.242;12.442;2023-08-30T08:45:20;3.03;;;0.90;;
69502;SDS011;56704;54.242;12.442;2023-08-30T08:47:48;3.17;;;0.80;;
69502;SDS011;56704;54.242;12.442;2023-08-30T08:50:15;2.35;;;0.75;;
69502;SDS011;56704;54.242;12.442;2023-08-30T08:52:44;3.73;;;0.93;;
69502;SDS011;56704;54.242;12.442;2023-08-30T08:55:15;2.85;;;1.00;;
69502;SDS011;56704;54.242;12.442;2023-08-30T08:57:42;2.30;;;0.73;;
69502;SDS011;56704;54.242;12.442;2023-08-30T09:00:10;4.32;;;0.90;;
69502;SDS011;56704;54.242;12.442;2023-08-30T09:02:37;2.92;;;1.15;;
69502;SDS011;56704;54.242;12.442;2023-08-30T09:05:05;2.97;;;0.70;;
69502;SDS011;56704;54.242;12.442;2023-08-30T09:07:33;2.83;;;0.65;;
69502;SDS011;56704;54.242;12.442;2023-08-30T09:10:01;2.55;;;0.60;;
69502;SDS011;56704;54.242;12.442;2023-08-30T09:12:31;2.05;;;0.68;;
69502;SDS011;56704;54.242;12.442;2023-08-30T09:14:58;2.80;;;0.75;;
69502;SDS011;56704;54.242;12.442;2023-08-30T09:17:34;3.30;;;0.60;;
69502;SDS011;56704;54.242;12.442;2023-08-30T09:20:05;2.88;;;0.60;;
69502;SDS011;56704;54.242;12.442;2023-08-30T09:22:35;9.18;;;7.55;;
69502;SDS011;56704;54.242;12.442;2023-08-30T09:25:04;12.95;;;7.90;;
69502;SDS011;56704;54.242;12.442;2023-08-30T09:27:32;6.95;;;4.13;;
69502;SDS011;56704;54.242;12.442;2023-08-30T09:29:59;2.27;;;0.77;;
69502;SDS011;56704;54.242;12.442;2023-08-30T09:32:26;3.10;;;0.80;;
69502;SDS011;56704;54.242;12.442;2023-08-30T09:34:52;2.33;;;0.60;;
69502;SDS011;56704;54.242;12.442;2023-08-30T09:37:19;2.25;;;0.80;;
69502;SDS011;56704;54.242;12.442;2023-08-30T09:39:48;2.88;;;0.70;;
69502;SDS011;56704;54.242;12.442;2023-08-30T09:42:17;2.30;;;0.50;;
69502;SDS011;56704;54.242;12.442;2023-08-30T09:44:44;3.20;;;0.80;;
69502;SDS011;56704;54.242;12.442;2023-08-30T09:47:12;3.30;;;1.00;;
69502;SDS011;56704;54.242;12.442;2023-08-30T09:49:42;3.35;;;1.05;;
69502;SDS011;56704;54.242;12.442;2023-08-30T09:52:09;4.78;;;1.00;;
69502;SDS011;56704;54.242;12.442;2023-08-30T09:54:36;3.70;;;0.87;;
69502;SDS011;56704;54.242;12.442;2023-08-30T09:57:06;3.83;;;0.98;;
69502;SDS011;56704;54.242;12.442;2023-08-30T09:59:37;3.00;;;0.90;;
69502;SDS011;56704;54.242;12.442;2023-08-30T10:02:05;3.80;;;0.80;;
69502;SDS011;56704;54.242;12.442;2023-08-30T10:04:34;2.10;;;0.90;;
69502;SDS011;56704;54.242;12.442;2023-08-30T10:07:03;3.83;;;1.20;;
69502;SDS011;56704;54.242;12.442;2023-08-30T10:09:30;3.25;;;1.10;;
69502;SDS011;56704;54.242;12.442;2023-08-30T10:11:58;2.88;;;1.15;;
69502;SDS011;56704;54.242;12.442;2023-08-30T10:14:26;3.72;;;1.20;;
69502;SDS011;56704;54.242;12.442;2023-08-30T10:16:56;3.03;;;1.15;;
69502;SDS011;56704;54.242;12.442;2023-08-30T10:19:27;4.53;;;1.10;;
69502;SDS011;56704;54.242;12.442;2023-08-30T10:21:58;2.17;;;0.68;;
69502;SDS011;56704;54.242;12.442;2023-08-30T10:24:28;3.15;;;1.10;;
69502;SDS011;56704;54.242;12.442;2023-08-30T10:26:58;4.03;;;1.00;;
69502;SDS011;56704;54.242;12.442;2023-08-30T10:29:26;3.17;;;0.73;;
69502;SDS011;56704;54.242;12.442;2023-08-30T10:31:56;2.47;;;0.80;;
69502;SDS011;56704;54.242;12.442;2023-08-30T10:34:32;5.95;;;1.10;;
69502;SDS011;56704;54.242;12.442;2023-08-30T10:36:59;2.70;;;0.80;;
69502;SDS011;56704;54.242;12.442;2023-08-30T10:39:32;2.22;;;0.80;;
69502;SDS011;56704;54.242;12.442;2023-08-30T10:42:00;2.97;;;1.10;;
69502;SDS011;56704;54.242;12.442;2023-08-30T10:44:32;4.90;;;1.17;;
69502;SDS011;56704;54.242;12.442;2023-08-30T10:47:01;3.10;;;1.10;;
69502;SDS011;56704;54.242;12.442;2023-08-30T10:49:28;5.15;;;1.40;;
69502;SDS011;56704;54.242;12.442;2023-08-30T10:51:55;3.03;;;1.25;;
69502;SDS011;56704;54.242;12.442;2023-08-30T10:54:22;4.32;;;1.50;;
69502;SDS011;56704;54.242;12.442;2023-08-30T10:56:54;3.97;;;1.40;;
69502;SDS011;56704;54.242;12.442;2023-08-30T10:59:21;2.80;;;1.08;;
69502;SDS011;56704;54.242;12.442;2023-08-30T11:01:50;2.70;;;1.10;;
69502;SDS011;56704;54.242;12.442;2023-08-30T11:04:19;3.90;;;0.95;;
69502;SDS011;56704;54.242;12.442;2023-08-30T11:06:47;4.00;;;1.20;;
69502;SDS011;56704;54.242;12.442;2023-08-30T11:09:17;3.07;;;0.80;;
69502;SDS011;56704;54.242;12.442;2023-08-30T11:11:44;2.50;;;1.05;;
69502;SDS011;56704;54.242;12.442;2023-08-30T11:14:12;2.60;;;1.10;;
69502;SDS011;56704;54.242;12.442;2023-08-30T11:16:39;2.90;;;1.40;;
69502;SDS011;56704;54.242;12.442;2023-08-30T11:19:07;2.50;;;1.10;;
69502;SDS011;56704;54.242;12.442;2023-08-30T11:21:36;3.17;;;1.17;;
69502;SDS011;56704;54.242;12.442;2023-08-30T11:24:04;3.00;;;1.13;;
69502;SDS011;56704;54.242;12.442;2023-08-30T11:26:32;5.05;;;1.50;;
69502;SDS011;56704;54.242;12.442;2023-08-30T11:29:03;3.00;;;0.98;;
69502;SDS011;56704;54.242;12.442;2023-08-30T11:31:30;4.32;;;1.20;;
69502;SDS011;56704;54.242;12.442;2023-08-30T11:33:58;3.90;;;1.20;;
69502;SDS011;56704;54.242;12.442;2023-08-30T11:36:26;3.17;;;1.20;;
69502;SDS011;56704;54.242;12.442;2023-08-30T11:38:55;3.17;;;1.38;;
69502;SDS011;56704;54.242;12.442;2023-08-30T11:41:22;3.58;;;1.13;;
69502;SDS011;56704;54.242;12.442;2023-08-30T11:43:49;3.08;;;1.15;;
69502;SDS011;56704;54.242;12.442;2023-08-30T11:46:16;2.53;;;1.17;;
69502;SDS011;56704;54.242;12.442;2023-08-30T11:48:43;4.35;;;1.45;;
69502;SDS011;56704;54.242;12.442;2023-08-30T11:51:13;5.40;;;1.40;;
69502;SDS011;56704;54.242;12.442;2023-08-30T11:53:40;5.75;;;1.50;;
69502;SDS011;56704;54.242;12.442;2023-08-30T11:56:08;3.33;;;1.27;;
69502;SDS011;56704;54.242;12.442;2023-08-30T11:58:35;3.13;;;1.30;;
69502;SDS011;56704;54.242;12.442;2023-08-30T12:01:02;3.88;;;1.10;;
69502;SDS011;56704;54.242;12.442;2023-08-30T12:03:30;4.18;;;1.40;;
69502;SDS011;56704;54.242;12.442;2023-08-30T12:05:57;3.75;;;1.60;;
69502;SDS011;56704;54.242;12.442;2023-08-30T12:08:25;3.63;;;1.40;;
69502;SDS011;56704;54.242;12.442;2023-08-30T12:10:54;3.90;;;1.40;;
69502;SDS011;56704;54.242;12.442;2023-08-30T12:13:23;3.63;;;1.40;;
69502;SDS011;56704;54.242;12.442;2023-08-30T12:15:50;3.20;;;1.70;;
69502;SDS011;56704;54.242;12.442;2023-08-30T12:18:17;3.20;;;1.35;;
69502;SDS011;56704;54.242;12.442;2023-08-30T12:20:53;3.70;;;1.55;;
69502;SDS011;56704;54.242;12.442;2023-08-30T12:23:21;3.50;;;1.50;;
69502;SDS011;56704;54.242;12.442;2023-08-30T12:26:01;4.03;;;1.60;;
69502;SDS011;56704;54.242;12.442;2023-08-30T12:28:32;3.90;;;1.38;;
69502;SDS011;56704;54.242;12.442;2023-08-30T12:31:00;3.95;;;1.40;;
69502;SDS011;56704;54.242;12.442;2023-08-30T12:33:27;2.63;;;1.20;;
69502;SDS011;56704;54.242;12.442;2023-08-30T12:35:54;3.00;;;1.47;;
69502;SDS011;56704;54.242;12.442;2023-08-30T12:38:21;3.22;;;1.70;;
69502;SDS011;56704;54.242;12.442;2023-08-30T12:40:48;3.88;;;1.45;;
69502;SDS011;56704;54.242;12.442;2023-08-30T12:43:16;4.18;;;1.30;;
69502;SDS011;56704;54.242;12.442;2023-08-30T12:45:46;3.17;;;1.45;;
69502;SDS011;56704;54.242;12.442;2023-08-30T12:48:14;5.10;;;1.60;;
69502;SDS011;56704;54.242;12.442;2023-08-30T12:50:42;3.03;;;1.38;;
69502;SDS011;56704;54.242;12.442;2023-08-30T12:53:11;3.97;;;1.55;;
69502;SDS011;56704;54.242;12.442;2023-08-30T12:55:37;3.05;;;1.35;;
69502;SDS011;56704;54.242;12.442;2023-08-30T12:58:05;3.63;;;1.50;;
69502;SDS011;56704;54.242;12.442;2023-08-30T13:00:32;3.93;;;1.40;;
69502;SDS011;56704;54.242;12.442;2023-08-30T13:03:01;3.55;;;1.30;;
69502;SDS011;56704;54.242;12.442;2023-08-30T13:05:28;2.95;;;1.27;;
69502;SDS011;56704;54.242;12.442;2023-08-30T13:07:55;2.97;;;1.23;;
69502;SDS011;56704;54.242;12.442;2023-08-30T13:10:22;2.90;;;1.17;;
69502;SDS011;56704;54.242;12.442;2023-08-30T13:12:48;2.77;;;1.10;;
69502;SDS011;56704;54.242;12.442;2023-08-30T13:15:15;3.13;;;0.93;;
69502;SDS011;56704;54.242;12.442;2023-08-30T13:17:41;2.25;;;0.90;;
69502;SDS011;56704;54.242;12.442;2023-08-30T13:20:10;2.58;;;1.00;;
69502;SDS011;56704;54.242;12.442;2023-08-30T13:22:37;4.22;;;0.98;;
69502;SDS011;56704;54.242;12.442;2023-08-30T13:25:04;3.23;;;0.83;;
69502;SDS011;56704;54.242;12.442;2023-08-30T13:27:31;2.75;;;1.00;;
69502;SDS011;56704;54.242;12.442;2023-08-30T13:29:57;4.10;;;1.05;;
69502;SDS011;56704;54.242;12.442;2023-08-30T13:32:24;3.28;;;0.82;;
69502;SDS011;56704;54.242;12.442;2023-08-30T13:34:50;2.83;;;0.80;;
69502;SDS011;56704;54.242;12.442;2023-08-30T13:37:19;7.07;;;0.70;;
69502;SDS011;56704;54.242;12.442;2023-08-30T13:39:45;1.90;;;0.60;;
69502;SDS011;56704;54.242;12.442;2023-08-30T13:42:12;4.60;;;0.70;;
69502;SDS011;56704;54.242;12.442;2023-08-30T13:44:39;2.70;;;0.75;;
69502;SDS011;56704;54.242;12.442;2023-08-30T13:47:07;2.78;;;0.70;;
69502;SDS011;56704;54.242;12.442;2023-08-30T13:49:34;2.40;;;0.60;;
69502;SDS011;56704;54.242;12.442;2023-08-30T13:52:01;2.47;;;0.60;;
69502;SDS011;56704;54.242;12.442;2023-08-30T13:54:29;2.95;;;0.70;;
69502;SDS011;56704;54.242;12.442;2023-08-30T13:56:56;3.30;;;0.68;;
69502;SDS011;56704;54.242;12.442;2023-08-30T13:59:23;2.13;;;0.70;;
69502;SDS011;56704;54.242;12.442;2023-08-30T14:01:50;2.70;;;0.80;;
69502;SDS011;56704;54.242;12.442;2023-08-30T14:04:17;2.55;;;0.80;;
69502;SDS011;56704;54.242;12.442;2023-08-30T14:06:43;2.00;;;0.90;;
69502;SDS011;56704;54.242;12.442;2023-08-30T14:09:10;2.90;;;0.90;;
69502;SDS011;56704;54.242;12.442;2023-08-30T14:11:38;3.42;;;1.00;;
69502;SDS011;56704;54.242;12.442;2023-08-30T14:14:06;2.40;;;0.70;;
69502;SDS011;56704;54.242;12.442;2023-08-30T14:16:33;2.30;;;0.80;;
69502;SDS011;56704;54.242;12.442;2023-08-30T14:19:01;3.10;;;0.93;;
69502;SDS011;56704;54.242;12.442;2023-08-30T14:21:30;2.60;;;0.73;;
69502;SDS011;56704;54.242;12.442;2023-08-30T14:23:57;3.08;;;0.93;;
69502;SDS011;56704;54.242;12.442;2023-08-30T14:26:23;3.07;;;0.80;;
69502;SDS011;56704;54.242;12.442;2023-08-30T14:28:51;2.15;;;0.90;;
69502;SDS011;56704;54.242;12.442;2023-08-30T16:49:34;2.30;;;0.65;;
69502;SDS011;56704;54.242;12.442;2023-08-30T16:55:24;3.35;;;0.73;;
69502;SDS011;56704;54.242;12.442;2023-08-30T16:57:51;2.42;;;0.75;;
69502;SDS011;56704;54.242;12.442;2023-08-30T17:00:18;3.83;;;0.80;;